sensor_id;sensor_type;location;lat;lon;timestamp;temperature;humidity
10903;DHT22;5504;47.312;11.060;2022-12-18T00:01:46;-1.50;90.60
10903;DHT22;5504;47.312;11.060;2022-12-18T00:04:30;-1.50;90.70
10903;DHT22;5504;47.312;11.060;2022-12-18T00:06:56;-1.60;90.60
10903;DHT22;5504;47.312;11.060;2022-12-18T00:09:21;-1.70;90.70
10903;DHT22;5504;47.312;11.060;2022-12-18T00:11:47;-1.60;90.60
10903;DHT22;5504;47.312;11.060;2022-12-18T00:14:14;-1.70;90.60
10903;DHT22;5504;47.312;11.060;2022-12-18T00:16:42;-1.90;90.50
10903;DHT22;5504;47.312;11.060;2022-12-18T00:19:10;-2.00;90.60
10903;DHT22;5504;47.312;11.060;2022-12-18T00:21:36;-2.10;90.70
10903;DHT22;5504;47.312;11.060;2022-12-18T00:24:01;-2.10;90.70
10903;DHT22;5504;47.312;11.060;2022-12-18T00:26:30;-2.20;90.70
10903;DHT22;5504;47.312;11.060;2022-12-18T00:28:59;-2.30;90.70
10903;DHT22;5504;47.312;11.060;2022-12-18T00:31:25;-2.10;90.70
10903;DHT22;5504;47.312;11.060;2022-12-18T00:33:53;-2.10;90.40
10903;DHT22;5504;47.312;11.060;2022-12-18T00:36:25;-2.00;90.20
10903;DHT22;5504;47.312;11.060;2022-12-18T00:38:51;-2.10;90.00
10903;DHT22;5504;47.312;11.060;2022-12-18T00:41:18;-2.50;89.50
10903;DHT22;5504;47.312;11.060;2022-12-18T00:44:05;-2.60;90.10
10903;DHT22;5504;47.312;11.060;2022-12-18T00:46:32;-2.70;90.40
10903;DHT22;5504;47.312;11.060;2022-12-18T00:48:57;-2.70;90.30
10903;DHT22;5504;47.312;11.060;2022-12-18T00:51:24;-2.60;90.40
10903;DHT22;5504;47.312;11.060;2022-12-18T00:53:50;-2.70;90.10
10903;DHT22;5504;47.312;11.060;2022-12-18T00:56:16;-2.90;90.00
10903;DHT22;5504;47.312;11.060;2022-12-18T00:58:41;-3.10;89.80
10903;DHT22;5504;47.312;11.060;2022-12-18T01:01:07;-3.10;90.00
10903;DHT22;5504;47.312;11.060;2022-12-18T01:03:34;-3.20;90.10
10903;DHT22;5504;47.312;11.060;2022-12-18T01:06:04;-3.00;90.30
10903;DHT22;5504;47.312;11.060;2022-12-18T01:08:30;-3.10;90.00
10903;DHT22;5504;47.312;11.060;2022-12-18T01:10:56;-3.30;89.90
10903;DHT22;5504;47.312;11.060;2022-12-18T01:13:21;-3.30;90.20
10903;DHT22;5504;47.312;11.060;2022-12-18T01:15:51;-3.10;90.10
10903;DHT22;5504;47.312;11.060;2022-12-18T01:18:16;-3.20;89.30
10903;DHT22;5504;47.312;11.060;2022-12-18T01:20:42;-3.60;88.60
10903;DHT22;5504;47.312;11.060;2022-12-18T01:23:08;-3.80;89.40
10903;DHT22;5504;47.312;11.060;2022-12-18T01:25:36;-3.90;90.10
10903;DHT22;5504;47.312;11.060;2022-12-18T01:28:02;-4.10;90.20
10903;DHT22;5504;47.312;11.060;2022-12-18T01:30:28;-4.10;90.50
10903;DHT22;5504;47.312;11.060;2022-12-18T01:32:53;-4.00;90.60
10903;DHT22;5504;47.312;11.060;2022-12-18T01:35:19;-4.00;90.10
10903;DHT22;5504;47.312;11.060;2022-12-18T01:37:45;-4.30;89.60
10903;DHT22;5504;47.312;11.060;2022-12-18T01:40:11;-4.40;90.20
10903;DHT22;5504;47.312;11.060;2022-12-18T01:42:37;-4.50;90.30
10903;DHT22;5504;47.312;11.060;2022-12-18T01:47:49;-4.50;90.60
10903;DHT22;5504;47.312;11.060;2022-12-18T01:53:02;-4.10;90.50
10903;DHT22;5504;47.312;11.060;2022-12-18T01:55:31;-4.10;89.90
10903;DHT22;5504;47.312;11.060;2022-12-18T01:57:59;-4.40;89.80
10903;DHT22;5504;47.312;11.060;2022-12-18T02:00:27;-4.40;89.20
10903;DHT22;5504;47.312;11.060;2022-12-18T02:02:53;-4.50;89.30
10903;DHT22;5504;47.312;11.060;2022-12-18T02:06:04;-4.30;89.60
10903;DHT22;5504;47.312;11.060;2022-12-18T02:22:29;-4.40;87.40
10903;DHT22;5504;47.312;11.060;2022-12-18T02:27:34;-4.70;87.20
10903;DHT22;5504;47.312;11.060;2022-12-18T02:30:02;-4.60;87.30
10903;DHT22;5504;47.312;11.060;2022-12-18T02:32:33;-4.70;87.60
10903;DHT22;5504;47.312;11.060;2022-12-18T02:35:03;-4.80;87.60
10903;DHT22;5504;47.312;11.060;2022-12-18T02:37:30;-5.10;87.40
10903;DHT22;5504;47.312;11.060;2022-12-18T02:39:59;-5.30;88.00
10903;DHT22;5504;47.312;11.060;2022-12-18T02:42:26;-5.50;89.40
10903;DHT22;5504;47.312;11.060;2022-12-18T02:44:53;-5.40;90.00
10903;DHT22;5504;47.312;11.060;2022-12-18T02:47:21;-5.40;89.50
10903;DHT22;5504;47.312;11.060;2022-12-18T02:50:14;-5.30;89.30
10903;DHT22;5504;47.312;11.060;2022-12-18T02:52:55;-5.20;89.10
10903;DHT22;5504;47.312;11.060;2022-12-18T03:03:50;-5.10;87.70
10903;DHT22;5504;47.312;11.060;2022-12-18T03:06:21;-5.10;87.00
10903;DHT22;5504;47.312;11.060;2022-12-18T03:08:51;-5.20;87.10
10903;DHT22;5504;47.312;11.060;2022-12-18T03:11:19;-5.40;86.90
10903;DHT22;5504;47.312;11.060;2022-12-18T03:14:07;-5.50;87.10
10903;DHT22;5504;47.312;11.060;2022-12-18T03:16:35;-5.60;87.70
10903;DHT22;5504;47.312;11.060;2022-12-18T03:19:08;-5.70;88.20
10903;DHT22;5504;47.312;11.060;2022-12-18T03:21:56;-5.50;88.60
10903;DHT22;5504;47.312;11.060;2022-12-18T03:24:24;-5.40;87.70
10903;DHT22;5504;47.312;11.060;2022-12-18T03:26:53;-5.30;87.20
10903;DHT22;5504;47.312;11.060;2022-12-18T03:29:40;-5.50;86.70
10903;DHT22;5504;47.312;11.060;2022-12-18T03:32:09;-5.80;86.20
10903;DHT22;5504;47.312;11.060;2022-12-18T03:34:38;-5.90;87.20
10903;DHT22;5504;47.312;11.060;2022-12-18T03:37:06;-5.90;87.80
10903;DHT22;5504;47.312;11.060;2022-12-18T03:39:32;-5.80;87.90
10903;DHT22;5504;47.312;11.060;2022-12-18T03:42:14;-5.70;87.80
10903;DHT22;5504;47.312;11.060;2022-12-18T03:44:45;-5.50;87.50
10903;DHT22;5504;47.312;11.060;2022-12-18T03:47:26;-5.60;86.90
10903;DHT22;5504;47.312;11.060;2022-12-18T03:55:12;-5.80;86.70
10903;DHT22;5504;47.312;11.060;2022-12-18T03:57:39;-5.70;86.30
10903;DHT22;5504;47.312;11.060;2022-12-18T04:00:11;-5.80;86.00
10903;DHT22;5504;47.312;11.060;2022-12-18T04:02:41;-5.80;86.30
10903;DHT22;5504;47.312;11.060;2022-12-18T04:05:09;-6.00;86.10
10903;DHT22;5504;47.312;11.060;2022-12-18T04:07:36;-6.00;86.30
10903;DHT22;5504;47.312;11.060;2022-12-18T04:10:03;-6.10;86.40
10903;DHT22;5504;47.312;11.060;2022-12-18T04:12:31;-6.30;86.50
10903;DHT22;5504;47.312;11.060;2022-12-18T04:14:57;-6.30;87.30
10903;DHT22;5504;47.312;11.060;2022-12-18T04:17:23;-6.20;87.60
10903;DHT22;5504;47.312;11.060;2022-12-18T04:19:49;-6.10;87.90
10903;DHT22;5504;47.312;11.060;2022-12-18T04:22:15;-6.00;86.70
10903;DHT22;5504;47.312;11.060;2022-12-18T04:24:40;-6.20;86.50
10903;DHT22;5504;47.312;11.060;2022-12-18T04:27:06;-6.20;85.80
10903;DHT22;5504;47.312;11.060;2022-12-18T04:29:32;-6.10;86.10
10903;DHT22;5504;47.312;11.060;2022-12-18T04:31:58;-6.40;85.80
10903;DHT22;5504;47.312;11.060;2022-12-18T04:34:23;-6.50;86.70
10903;DHT22;5504;47.312;11.060;2022-12-18T04:36:49;-6.40;87.10
10903;DHT22;5504;47.312;11.060;2022-12-18T04:39:17;-6.30;86.60
10903;DHT22;5504;47.312;11.060;2022-12-18T04:41:43;-6.20;86.30
10903;DHT22;5504;47.312;11.060;2022-12-18T04:44:09;-6.30;86.10
10903;DHT22;5504;47.312;11.060;2022-12-18T04:46:35;-6.40;85.80
10903;DHT22;5504;47.312;11.060;2022-12-18T04:49:00;-6.50;86.00
10903;DHT22;5504;47.312;11.060;2022-12-18T04:51:26;-6.40;86.40
10903;DHT22;5504;47.312;11.060;2022-12-18T04:53:52;-6.40;87.00
10903;DHT22;5504;47.312;11.060;2022-12-18T04:56:18;-6.30;86.30
10903;DHT22;5504;47.312;11.060;2022-12-18T04:58:44;-6.30;85.80
10903;DHT22;5504;47.312;11.060;2022-12-18T05:01:11;-6.30;85.70
10903;DHT22;5504;47.312;11.060;2022-12-18T05:03:37;-6.40;85.40
10903;DHT22;5504;47.312;11.060;2022-12-18T05:06:04;-6.40;86.00
10903;DHT22;5504;47.312;11.060;2022-12-18T05:08:30;-6.60;85.50
10903;DHT22;5504;47.312;11.060;2022-12-18T05:11:15;-6.90;86.90
10903;DHT22;5504;47.312;11.060;2022-12-18T05:13:44;-6.80;88.10
10903;DHT22;5504;47.312;11.060;2022-12-18T05:16:11;-6.70;88.10
10903;DHT22;5504;47.312;11.060;2022-12-18T05:18:38;-6.50;87.70
10903;DHT22;5504;47.312;11.060;2022-12-18T05:21:04;-6.50;87.10
10903;DHT22;5504;47.312;11.060;2022-12-18T05:23:30;-6.40;86.60
10903;DHT22;5504;47.312;11.060;2022-12-18T05:25:58;-6.60;86.00
10903;DHT22;5504;47.312;11.060;2022-12-18T05:28:26;-6.70;86.40
10903;DHT22;5504;47.312;11.060;2022-12-18T05:30:54;-6.70;86.60
10903;DHT22;5504;47.312;11.060;2022-12-18T05:33:21;-6.80;86.80
10903;DHT22;5504;47.312;11.060;2022-12-18T05:35:54;-6.50;86.80
10903;DHT22;5504;47.312;11.060;2022-12-18T05:38:21;-6.40;86.00
10903;DHT22;5504;47.312;11.060;2022-12-18T05:40:48;-6.50;85.80
10903;DHT22;5504;47.312;11.060;2022-12-18T05:43:15;-6.50;85.80
10903;DHT22;5504;47.312;11.060;2022-12-18T05:45:41;-6.60;85.60
10903;DHT22;5504;47.312;11.060;2022-12-18T05:48:08;-6.40;86.10
10903;DHT22;5504;47.312;11.060;2022-12-18T05:50:38;-6.40;85.80
10903;DHT22;5504;47.312;11.060;2022-12-18T05:53:04;-6.60;85.50
10903;DHT22;5504;47.312;11.060;2022-12-18T05:55:37;-7.00;85.50
10903;DHT22;5504;47.312;11.060;2022-12-18T05:58:04;-7.10;86.80
10903;DHT22;5504;47.312;11.060;2022-12-18T06:00:31;-7.10;87.30
10903;DHT22;5504;47.312;11.060;2022-12-18T06:02:58;-6.90;87.40
10903;DHT22;5504;47.312;11.060;2022-12-18T06:05:24;-6.70;86.90
10903;DHT22;5504;47.312;11.060;2022-12-18T06:07:51;-6.90;86.10
10903;DHT22;5504;47.312;11.060;2022-12-18T06:10:17;-6.90;86.00
10903;DHT22;5504;47.312;11.060;2022-12-18T06:12:42;-6.80;86.10
10903;DHT22;5504;47.312;11.060;2022-12-18T06:15:08;-6.70;85.80
10903;DHT22;5504;47.312;11.060;2022-12-18T06:17:34;-6.60;85.40
10903;DHT22;5504;47.312;11.060;2022-12-18T06:20:01;-6.60;85.10
10903;DHT22;5504;47.312;11.060;2022-12-18T06:22:27;-6.70;85.10
10903;DHT22;5504;47.312;11.060;2022-12-18T06:24:53;-6.70;85.60
10903;DHT22;5504;47.312;11.060;2022-12-18T06:27:18;-6.80;85.70
10903;DHT22;5504;47.312;11.060;2022-12-18T06:29:44;-7.10;86.00
10903;DHT22;5504;47.312;11.060;2022-12-18T06:32:11;-7.00;86.70
10903;DHT22;5504;47.312;11.060;2022-12-18T06:34:39;-6.90;86.80
10903;DHT22;5504;47.312;11.060;2022-12-18T06:37:05;-6.80;86.40
10903;DHT22;5504;47.312;11.060;2022-12-18T06:39:30;-6.80;86.30
10903;DHT22;5504;47.312;11.060;2022-12-18T06:41:56;-7.00;85.80
10903;DHT22;5504;47.312;11.060;2022-12-18T06:44:22;-7.00;86.10
10903;DHT22;5504;47.312;11.060;2022-12-18T06:46:47;-7.00;85.70
10903;DHT22;5504;47.312;11.060;2022-12-18T06:49:13;-7.10;85.50
10903;DHT22;5504;47.312;11.060;2022-12-18T06:51:39;-7.20;85.90
10903;DHT22;5504;47.312;11.060;2022-12-18T06:54:05;-7.10;86.50
10903;DHT22;5504;47.312;11.060;2022-12-18T06:56:31;-7.00;86.40
10903;DHT22;5504;47.312;11.060;2022-12-18T06:58:56;-6.90;86.30
10903;DHT22;5504;47.312;11.060;2022-12-18T07:01:22;-6.80;86.00
10903;DHT22;5504;47.312;11.060;2022-12-18T07:03:55;-6.80;85.40
10903;DHT22;5504;47.312;11.060;2022-12-18T07:06:22;-6.90;85.00
10903;DHT22;5504;47.312;11.060;2022-12-18T07:08:50;-6.80;85.30
10903;DHT22;5504;47.312;11.060;2022-12-18T07:11:17;-6.90;85.10
10903;DHT22;5504;47.312;11.060;2022-12-18T07:13:43;-6.90;85.00
10903;DHT22;5504;47.312;11.060;2022-12-18T07:16:17;-6.80;85.30
10903;DHT22;5504;47.312;11.060;2022-12-18T07:18:43;-6.80;85.00
10903;DHT22;5504;47.312;11.060;2022-12-18T07:21:13;-6.90;84.30
10903;DHT22;5504;47.312;11.060;2022-12-18T07:23:39;-6.90;84.80
10903;DHT22;5504;47.312;11.060;2022-12-18T07:26:06;-6.80;85.10
10903;DHT22;5504;47.312;11.060;2022-12-18T07:28:33;-6.70;85.20
10903;DHT22;5504;47.312;11.060;2022-12-18T07:31:07;-6.60;85.10
10903;DHT22;5504;47.312;11.060;2022-12-18T07:33:33;-7.00;85.10
10903;DHT22;5504;47.312;11.060;2022-12-18T07:36:00;-6.90;86.40
10903;DHT22;5504;47.312;11.060;2022-12-18T07:38:26;-6.80;86.20
10903;DHT22;5504;47.312;11.060;2022-12-18T07:40:52;-6.80;85.70
10903;DHT22;5504;47.312;11.060;2022-12-18T07:43:18;-6.70;86.00
10903;DHT22;5504;47.312;11.060;2022-12-18T07:45:44;-6.70;85.40
10903;DHT22;5504;47.312;11.060;2022-12-18T07:48:10;-6.80;85.10
10903;DHT22;5504;47.312;11.060;2022-12-18T07:50:36;-6.60;85.50
10903;DHT22;5504;47.312;11.060;2022-12-18T07:53:01;-6.50;85.10
10903;DHT22;5504;47.312;11.060;2022-12-18T07:55:30;-6.60;84.70
10903;DHT22;5504;47.312;11.060;2022-12-18T07:57:55;-6.60;85.00
10903;DHT22;5504;47.312;11.060;2022-12-18T08:00:21;-6.50;85.20
10903;DHT22;5504;47.312;11.060;2022-12-18T08:02:47;-6.30;84.90
10903;DHT22;5504;47.312;11.060;2022-12-18T08:05:13;-6.30;84.50
10903;DHT22;5504;47.312;11.060;2022-12-18T08:07:39;-6.20;84.50
10903;DHT22;5504;47.312;11.060;2022-12-18T08:10:05;-6.20;84.60
10903;DHT22;5504;47.312;11.060;2022-12-18T08:12:31;-6.20;84.60
10903;DHT22;5504;47.312;11.060;2022-12-18T08:14:57;-6.30;84.40
10903;DHT22;5504;47.312;11.060;2022-12-18T08:17:23;-6.40;85.00
10903;DHT22;5504;47.312;11.060;2022-12-18T08:19:48;-6.30;85.50
10903;DHT22;5504;47.312;11.060;2022-12-18T08:22:14;-6.20;85.20
10903;DHT22;5504;47.312;11.060;2022-12-18T08:24:40;-6.10;84.70
10903;DHT22;5504;47.312;11.060;2022-12-18T08:27:05;-6.00;84.60
10903;DHT22;5504;47.312;11.060;2022-12-18T08:29:31;-6.10;84.00
10903;DHT22;5504;47.312;11.060;2022-12-18T08:31:57;-6.20;85.60
10903;DHT22;5504;47.312;11.060;2022-12-18T08:34:23;-5.80;88.60
10903;DHT22;5504;47.312;11.060;2022-12-18T08:36:48;-5.20;87.80
10903;DHT22;5504;47.312;11.060;2022-12-18T08:39:14;-4.50;86.90
10903;DHT22;5504;47.312;11.060;2022-12-18T08:41:40;-3.90;84.90
10903;DHT22;5504;47.312;11.060;2022-12-18T08:44:07;-3.40;82.80
10903;DHT22;5504;47.312;11.060;2022-12-18T08:46:51;-3.00;80.80
10903;DHT22;5504;47.312;11.060;2022-12-18T08:49:18;-2.40;79.30
10903;DHT22;5504;47.312;11.060;2022-12-18T08:51:44;-2.30;77.20
10903;DHT22;5504;47.312;11.060;2022-12-18T08:54:11;-2.00;77.10
10903;DHT22;5504;47.312;11.060;2022-12-18T08:56:38;-1.50;76.90
10903;DHT22;5504;47.312;11.060;2022-12-18T08:59:04;-1.20;74.90
10903;DHT22;5504;47.312;11.060;2022-12-18T09:01:30;-0.80;74.40
10903;DHT22;5504;47.312;11.060;2022-12-18T09:03:56;-0.50;73.10
10903;DHT22;5504;47.312;11.060;2022-12-18T09:06:22;-0.10;71.70
10903;DHT22;5504;47.312;11.060;2022-12-18T09:08:49;0.10;70.40
10903;DHT22;5504;47.312;11.060;2022-12-18T09:11:20;0.50;69.80
10903;DHT22;5504;47.312;11.060;2022-12-18T09:13:46;0.90;68.80
10903;DHT22;5504;47.312;11.060;2022-12-18T09:16:12;1.10;67.30
10903;DHT22;5504;47.312;11.060;2022-12-18T09:18:38;1.30;66.70
10903;DHT22;5504;47.312;11.060;2022-12-18T09:21:31;1.70;65.90
10903;DHT22;5504;47.312;11.060;2022-12-18T09:23:57;2.00;64.60
10903;DHT22;5504;47.312;11.060;2022-12-18T09:29:44;1.80;64.00
10903;DHT22;5504;47.312;11.060;2022-12-18T09:32:10;1.90;65.00
10903;DHT22;5504;47.312;11.060;2022-12-18T09:34:36;1.70;64.20
10903;DHT22;5504;47.312;11.060;2022-12-18T09:37:01;1.60;65.80
10903;DHT22;5504;47.312;11.060;2022-12-18T09:39:27;1.90;66.30
10903;DHT22;5504;47.312;11.060;2022-12-18T09:41:57;2.30;66.20
10903;DHT22;5504;47.312;11.060;2022-12-18T09:44:33;1.80;65.80
10903;DHT22;5504;47.312;11.060;2022-12-18T09:49:47;3.40;63.70
10903;DHT22;5504;47.312;11.060;2022-12-18T09:53:04;4.10;62.40
10903;DHT22;5504;47.312;11.060;2022-12-18T09:57:39;4.50;58.70
10903;DHT22;5504;47.312;11.060;2022-12-18T10:00:19;4.90;58.70
10903;DHT22;5504;47.312;11.060;2022-12-18T10:02:45;5.00;58.70
10903;DHT22;5504;47.312;11.060;2022-12-18T10:05:25;5.50;58.90
10903;DHT22;5504;47.312;11.060;2022-12-18T10:08:06;6.30;58.60
10903;DHT22;5504;47.312;11.060;2022-12-18T10:10:47;6.90;57.40
10903;DHT22;5504;47.312;11.060;2022-12-18T10:16:00;7.70;55.70
10903;DHT22;5504;47.312;11.060;2022-12-18T10:21:07;6.60;57.90
10903;DHT22;5504;47.312;11.060;2022-12-18T10:23:58;7.50;57.60
10903;DHT22;5504;47.312;11.060;2022-12-18T10:26:28;8.10;56.00
10903;DHT22;5504;47.312;11.060;2022-12-18T10:28:54;6.80;56.70
10903;DHT22;5504;47.312;11.060;2022-12-18T10:31:23;6.20;58.30
10903;DHT22;5504;47.312;11.060;2022-12-18T10:33:49;6.40;58.70
10903;DHT22;5504;47.312;11.060;2022-12-18T10:36:15;6.20;59.30
10903;DHT22;5504;47.312;11.060;2022-12-18T10:38:41;6.00;58.40
10903;DHT22;5504;47.312;11.060;2022-12-18T10:41:22;6.80;59.20
10903;DHT22;5504;47.312;11.060;2022-12-18T10:46:36;8.30;55.90
10903;DHT22;5504;47.312;11.060;2022-12-18T10:49:02;5.90;55.90
10903;DHT22;5504;47.312;11.060;2022-12-18T10:51:31;5.70;57.90
10903;DHT22;5504;47.312;11.060;2022-12-18T10:54:14;5.50;58.10
10903;DHT22;5504;47.312;11.060;2022-12-18T10:56:40;4.60;60.60
10903;DHT22;5504;47.312;11.060;2022-12-18T10:59:10;5.90;60.70
10903;DHT22;5504;47.312;11.060;2022-12-18T11:01:55;7.30;58.40
10903;DHT22;5504;47.312;11.060;2022-12-18T11:04:31;7.90;57.40
10903;DHT22;5504;47.312;11.060;2022-12-18T11:07:00;8.20;56.80
10903;DHT22;5504;47.312;11.060;2022-12-18T11:09:34;8.10;57.30
10903;DHT22;5504;47.312;11.060;2022-12-18T11:14:46;8.10;57.00
10903;DHT22;5504;47.312;11.060;2022-12-18T11:19:59;9.30;56.30
10903;DHT22;5504;47.312;11.060;2022-12-18T11:22:29;10.10;54.20
10903;DHT22;5504;47.312;11.060;2022-12-18T11:27:31;10.80;52.30
10903;DHT22;5504;47.312;11.060;2022-12-18T11:30:20;10.30;52.10
10903;DHT22;5504;47.312;11.060;2022-12-18T11:32:53;9.40;53.50
10903;DHT22;5504;47.312;11.060;2022-12-18T11:37:58;7.20;56.10
10903;DHT22;5504;47.312;11.060;2022-12-18T11:40:32;6.50;57.20
10903;DHT22;5504;47.312;11.060;2022-12-18T11:43:13;7.30;58.40
10903;DHT22;5504;47.312;11.060;2022-12-18T11:46:33;8.50;57.20
10903;DHT22;5504;47.312;11.060;2022-12-18T11:48:42;9.10;55.10
10903;DHT22;5504;47.312;11.060;2022-12-18T11:51:15;9.00;55.40
10903;DHT22;5504;47.312;11.060;2022-12-18T11:53:45;9.10;54.90
10903;DHT22;5504;47.312;11.060;2022-12-18T11:56:35;8.70;56.00
10903;DHT22;5504;47.312;11.060;2022-12-18T12:01:55;7.80;58.10
10903;DHT22;5504;47.312;11.060;2022-12-18T12:07:09;8.50;58.10
10903;DHT22;5504;47.312;11.060;2022-12-18T12:15:13;9.70;54.60
10903;DHT22;5504;47.312;11.060;2022-12-18T12:17:48;9.70;55.30
10903;DHT22;5504;47.312;11.060;2022-12-18T12:20:24;9.10;56.10
10903;DHT22;5504;47.312;11.060;2022-12-18T12:25:40;9.30;55.50
10903;DHT22;5504;47.312;11.060;2022-12-18T12:28:42;8.90;56.10
10903;DHT22;5504;47.312;11.060;2022-12-18T12:36:46;8.40;57.50
10903;DHT22;5504;47.312;11.060;2022-12-18T12:39:19;8.80;57.30
10903;DHT22;5504;47.312;11.060;2022-12-18T12:41:46;9.10;55.90
10903;DHT22;5504;47.312;11.060;2022-12-18T12:44:35;9.30;56.20
10903;DHT22;5504;47.312;11.060;2022-12-18T12:47:14;9.00;56.30
10903;DHT22;5504;47.312;11.060;2022-12-18T12:49:42;8.80;57.20
10903;DHT22;5504;47.312;11.060;2022-12-18T12:52:49;9.30;57.20
10903;DHT22;5504;47.312;11.060;2022-12-18T12:55:17;9.70;56.10
10903;DHT22;5504;47.312;11.060;2022-12-18T12:58:02;9.20;55.50
10903;DHT22;5504;47.312;11.060;2022-12-18T13:00:41;9.00;55.80
10903;DHT22;5504;47.312;11.060;2022-12-18T13:05:58;8.70;56.80
10903;DHT22;5504;47.312;11.060;2022-12-18T13:08:25;8.70;56.70
10903;DHT22;5504;47.312;11.060;2022-12-18T13:10:53;8.80;56.90
10903;DHT22;5504;47.312;11.060;2022-12-18T13:13:54;8.60;56.70
10903;DHT22;5504;47.312;11.060;2022-12-18T13:16:24;8.40;57.20
10903;DHT22;5504;47.312;11.060;2022-12-18T13:18:52;8.40;57.50
10903;DHT22;5504;47.312;11.060;2022-12-18T13:21:31;8.20;57.70
10903;DHT22;5504;47.312;11.060;2022-12-18T13:24:15;7.80;58.60
10903;DHT22;5504;47.312;11.060;2022-12-18T13:26:41;7.20;60.00
10903;DHT22;5504;47.312;11.060;2022-12-18T13:29:07;6.80;61.70
10903;DHT22;5504;47.312;11.060;2022-12-18T13:34:17;6.80;61.30
10903;DHT22;5504;47.312;11.060;2022-12-18T13:36:44;6.40;61.80
10903;DHT22;5504;47.312;11.060;2022-12-18T13:42:34;5.50;64.70
10903;DHT22;5504;47.312;11.060;2022-12-18T13:44:58;5.70;64.20
10903;DHT22;5504;47.312;11.060;2022-12-18T13:47:43;5.30;64.70
10903;DHT22;5504;47.312;11.060;2022-12-18T13:50:20;4.80;65.50
10903;DHT22;5504;47.312;11.060;2022-12-18T13:52:47;4.60;67.10
10903;DHT22;5504;47.312;11.060;2022-12-18T13:55:19;4.50;67.20
10903;DHT22;5504;47.312;11.060;2022-12-18T13:57:45;4.50;66.90
10903;DHT22;5504;47.312;11.060;2022-12-18T14:00:27;4.20;67.20
10903;DHT22;5504;47.312;11.060;2022-12-18T14:02:54;3.90;68.60
10903;DHT22;5504;47.312;11.060;2022-12-18T14:05:33;3.50;71.10
10903;DHT22;5504;47.312;11.060;2022-12-18T14:08:11;3.10;73.30
10903;DHT22;5504;47.312;11.060;2022-12-18T14:10:46;2.80;73.60
10903;DHT22;5504;47.312;11.060;2022-12-18T14:13:58;2.80;74.50
10903;DHT22;5504;47.312;11.060;2022-12-18T14:16:06;2.80;73.90
10903;DHT22;5504;47.312;11.060;2022-12-18T14:18:45;2.80;72.40
10903;DHT22;5504;47.312;11.060;2022-12-18T14:21:28;2.60;72.60
10903;DHT22;5504;47.312;11.060;2022-12-18T14:24:05;2.40;73.70
10903;DHT22;5504;47.312;11.060;2022-12-18T14:26:32;2.30;74.80
10903;DHT22;5504;47.312;11.060;2022-12-18T14:31:44;1.70;77.00
10903;DHT22;5504;47.312;11.060;2022-12-18T14:34:16;1.70;77.70
10903;DHT22;5504;47.312;11.060;2022-12-18T14:36:52;1.70;77.70
10903;DHT22;5504;47.312;11.060;2022-12-18T14:39:18;1.60;77.60
10903;DHT22;5504;47.312;11.060;2022-12-18T14:41:44;1.50;78.00
10903;DHT22;5504;47.312;11.060;2022-12-18T14:44:12;1.60;77.80
10903;DHT22;5504;47.312;11.060;2022-12-18T14:46:39;1.70;76.30
10903;DHT22;5504;47.312;11.060;2022-12-18T14:49:32;1.50;76.20
10903;DHT22;5504;47.312;11.060;2022-12-18T14:52:04;1.40;76.60
10903;DHT22;5504;47.312;11.060;2022-12-18T14:54:31;1.40;76.50
10903;DHT22;5504;47.312;11.060;2022-12-18T14:57:21;1.10;76.70
10903;DHT22;5504;47.312;11.060;2022-12-18T14:59:48;0.90;78.50
10903;DHT22;5504;47.312;11.060;2022-12-18T15:02:23;0.70;79.30
10903;DHT22;5504;47.312;11.060;2022-12-18T15:07:41;0.80;79.20
10903;DHT22;5504;47.312;11.060;2022-12-18T15:12:47;0.50;79.10
10903;DHT22;5504;47.312;11.060;2022-12-18T15:20:46;0.00;80.90
10903;DHT22;5504;47.312;11.060;2022-12-18T15:25:45;-0.20;81.70
10903;DHT22;5504;47.312;11.060;2022-12-18T15:33:41;-0.40;80.70
10903;DHT22;5504;47.312;11.060;2022-12-18T15:36:12;-0.50;80.90
10903;DHT22;5504;47.312;11.060;2022-12-18T15:38:38;-0.60;80.80
10903;DHT22;5504;47.312;11.060;2022-12-18T15:41:04;-1.10;82.00
10903;DHT22;5504;47.312;11.060;2022-12-18T15:43:30;-1.20;83.80
10903;DHT22;5504;47.312;11.060;2022-12-18T15:46:06;-1.10;84.60
10903;DHT22;5504;47.312;11.060;2022-12-18T15:48:34;-1.00;84.50
10903;DHT22;5504;47.312;11.060;2022-12-18T15:51:00;-1.00;84.80
10903;DHT22;5504;47.312;11.060;2022-12-18T15:53:30;-1.00;84.50
10903;DHT22;5504;47.312;11.060;2022-12-18T15:55:57;-0.90;83.60
10903;DHT22;5504;47.312;11.060;2022-12-18T15:58:41;-1.00;83.00
10903;DHT22;5504;47.312;11.060;2022-12-18T16:01:09;-1.20;84.20
10903;DHT22;5504;47.312;11.060;2022-12-18T16:03:35;-1.10;84.40
10903;DHT22;5504;47.312;11.060;2022-12-18T16:06:01;-1.20;84.40
10903;DHT22;5504;47.312;11.060;2022-12-18T16:08:28;-1.10;84.60
10903;DHT22;5504;47.312;11.060;2022-12-18T16:10:55;-1.30;83.90
10903;DHT22;5504;47.312;11.060;2022-12-18T16:13:21;-1.40;83.90
10903;DHT22;5504;47.312;11.060;2022-12-18T16:15:47;-1.50;84.40
10903;DHT22;5504;47.312;11.060;2022-12-18T16:18:12;-1.50;84.80
10903;DHT22;5504;47.312;11.060;2022-12-18T16:20:38;-1.70;86.20
10903;DHT22;5504;47.312;11.060;2022-12-18T16:23:04;-1.60;86.00
10903;DHT22;5504;47.312;11.060;2022-12-18T16:25:30;-1.50;85.40
10903;DHT22;5504;47.312;11.060;2022-12-18T16:27:56;-1.80;85.10
10903;DHT22;5504;47.312;11.060;2022-12-18T16:30:25;-2.10;85.60
10903;DHT22;5504;47.312;11.060;2022-12-18T16:32:53;-2.20;86.00
10903;DHT22;5504;47.312;11.060;2022-12-18T16:35:19;-2.10;86.50
10903;DHT22;5504;47.312;11.060;2022-12-18T16:37:45;-1.90;86.00
10903;DHT22;5504;47.312;11.060;2022-12-18T16:40:13;-1.80;85.40
10903;DHT22;5504;47.312;11.060;2022-12-18T16:42:41;-2.00;85.00
10903;DHT22;5504;47.312;11.060;2022-12-18T16:45:08;-2.50;85.90
10903;DHT22;5504;47.312;11.060;2022-12-18T16:47:34;-2.60;87.30
10903;DHT22;5504;47.312;11.060;2022-12-18T16:50:00;-2.50;87.80
10903;DHT22;5504;47.312;11.060;2022-12-18T16:52:26;-2.50;87.70
10903;DHT22;5504;47.312;11.060;2022-12-18T16:54:52;-2.40;87.60
10903;DHT22;5504;47.312;11.060;2022-12-18T16:57:19;-2.40;87.60
10903;DHT22;5504;47.312;11.060;2022-12-18T16:59:45;-2.60;88.10
10903;DHT22;5504;47.312;11.060;2022-12-18T17:02:20;-2.40;88.10
10903;DHT22;5504;47.312;11.060;2022-12-18T17:04:46;-2.20;87.20
10903;DHT22;5504;47.312;11.060;2022-12-18T17:07:13;-2.10;86.40
10903;DHT22;5504;47.312;11.060;2022-12-18T17:09:39;-2.40;85.40
10903;DHT22;5504;47.312;11.060;2022-12-18T17:12:05;-2.40;85.60
10903;DHT22;5504;47.312;11.060;2022-12-18T17:14:32;-2.30;85.60
10903;DHT22;5504;47.312;11.060;2022-12-18T17:16:58;-2.20;85.40
10903;DHT22;5504;47.312;11.060;2022-12-18T17:19:27;-2.30;85.20
10903;DHT22;5504;47.312;11.060;2022-12-18T17:21:53;-2.50;84.90
10903;DHT22;5504;47.312;11.060;2022-12-18T17:24:20;-2.60;85.80
10903;DHT22;5504;47.312;11.060;2022-12-18T17:26:46;-2.50;86.60
10903;DHT22;5504;47.312;11.060;2022-12-18T17:29:17;-2.40;86.80
10903;DHT22;5504;47.312;11.060;2022-12-18T17:31:45;-2.40;86.30
10903;DHT22;5504;47.312;11.060;2022-12-18T17:34:11;-2.40;85.90
10903;DHT22;5504;47.312;11.060;2022-12-18T17:36:37;-2.50;85.70
10903;DHT22;5504;47.312;11.060;2022-12-18T17:39:04;-2.50;85.40
10903;DHT22;5504;47.312;11.060;2022-12-18T17:41:30;-2.40;85.20
10903;DHT22;5504;47.312;11.060;2022-12-18T17:44:01;-2.40;85.00